Wetterdaten: Woche 02.06.14 - 08.06.14 (KW23)
Datum Zeit Temp. Aussen +5cm Feuchte Auss Luftdruck Regen Sonnenschein Regendauer UV Solar Windben
02.06.2014 00:00 10,6 C 8,7 C 89 % 1019,7 hPa 0,0 l/m 0,00 h 0,00 h 0,0 UV-I 0 W/m 0,0 km/h (0 Bft)
02.06.2014 01:00 10,0 C 8,2 C 92 % 1019,7 hPa 0,0 l/m 0,00 h 0,00 h 0,0 UV-I 0 W/m 0,0 km/h (0 Bft)
02.06.2014 02:00 9,4 C 7,6 C 93 % 1019,7 hPa 0,0 l/m 0,00 h 0,00 h 0,0 UV-I 0 W/m 0,0 km/h (0 Bft)
02.06.2014 03:00 8,7 C 7,1 C 94 % 1019,7 hPa 0,0 l/m 0,00 h 0,00 h 0,0 UV-I 0 W/m 0,0 km/h (0 Bft)
02.06.2014 04:00 8,2 C 6,7 C 96 % 1019,5 hPa 0,0 l/m 0,00 h 0,00 h 0,0 UV-I 0 W/m 0,0 km/h (0 Bft)
02.06.2014 05:00 7,9 C 6,6 C 96 % 1019,4 hPa 0,0 l/m 0,00 h 0,00 h 0,0 UV-I 11 W/m 0,0 km/h (0 Bft)
02.06.2014 06:00 8,3 C 7,1 C 97 % 1019,5 hPa 0,0 l/m 0,00 h 0,00 h 0,0 UV-I 39 W/m 0,0 km/h (0 Bft)
02.06.2014 07:00 10,2 C 8,9 C 95 % 1019,4 hPa 0,0 l/m 0,13 h 0,00 h 0,0 UV-I 91 W/m 0,2 km/h (0 Bft)
02.06.2014 08:00 12,9 C 11,4 C 87 % 1019,3 hPa 0,0 l/m 0,97 h 0,00 h 0,5 UV-I 325 W/m 0,3 km/h (0 Bft)
02.06.2014 09:00 15,9 C 14,6 C 77 % 1019,3 hPa 0,0 l/m 0,97 h 0,00 h 1,0 UV-I 485 W/m 1,0 km/h (0 Bft)
02.06.2014 10:00 18,1 C 20,7 C 67 % 1019,2 hPa 0,0 l/m 0,80 h 0,00 h 1,8 UV-I 567 W/m 4,6 km/h (1 Bft)
02.06.2014 11:00 18,0 C 18,7 C 62 % 1019,1 hPa 0,0 l/m 0,30 h 0,00 h 1,7 UV-I 385 W/m 3,8 km/h (1 Bft)
02.06.2014 12:00 19,2 C 21,3 C 59 % 1018,9 hPa 0,0 l/m 0,80 h 0,00 h 2,8 UV-I 604 W/m 3,5 km/h (1 Bft)
02.06.2014 13:00 20,1 C 21,7 C 56 % 1018,5 hPa 0,0 l/m 0,57 h 0,00 h 2,3 UV-I 626 W/m 4,2 km/h (1 Bft)
02.06.2014 14:00 20,2 C 21,5 C 55 % 1018,0 hPa 0,0 l/m 0,53 h 0,00 h 2,7 UV-I 522 W/m 3,1 km/h (1 Bft)
02.06.2014 15:00 21,0 C 23,8 C 53 % 1017,7 hPa 0,0 l/m 0,70 h 0,00 h 2,5 UV-I 597 W/m 3,3 km/h (1 Bft)
02.06.2014 16:00 21,7 C 23,2 C 51 % 1017,5 hPa 0,0 l/m 0,97 h 0,00 h 2,2 UV-I 722 W/m 5,1 km/h (1 Bft)
02.06.2014 17:00 20,6 C 20,8 C 52 % 1017,2 hPa 0,0 l/m 0,53 h 0,00 h 0,9 UV-I 304 W/m 2,3 km/h (1 Bft)
02.06.2014 18:00 20,0 C 19,0 C 53 % 1016,9 hPa 0,0 l/m 0,03 h 0,00 h 0,5 UV-I 134 W/m 0,8 km/h (0 Bft)
02.06.2014 19:00 20,1 C 18,5 C 52 % 1016,8 hPa 0,0 l/m 0,00 h 0,00 h 0,0 UV-I 91 W/m 1,4 km/h (1 Bft)
02.06.2014 20:00 19,3 C 17,1 C 56 % 1016,7 hPa 0,0 l/m 0,00 h 0,00 h 0,0 UV-I 46 W/m 0,3 km/h (0 Bft)
02.06.2014 21:00 17,1 C 14,3 C 68 % 1016,8 hPa 0,0 l/m 0,00 h 0,00 h 0,0 UV-I 12 W/m 0,0 km/h (0 Bft)
02.06.2014 22:00 14,6 C 12,2 C 79 % 1016,9 hPa 0,0 l/m 0,00 h 0,00 h 0,0 UV-I 0 W/m 0,0 km/h (0 Bft)
02.06.2014 23:00 13,0 C 11,0 C 84 % 1016,8 hPa 0,0 l/m 0,00 h 0,00 h 0,0 UV-I 0 W/m 0,0 km/h (0 Bft)
03.06.2014 00:00 12,0 C 10,3 C 88 % 1016,8 hPa 0,0 l/m 0,00 h 0,00 h 0,0 UV-I 0 W/m 0,0 km/h (0 Bft)
03.06.2014 01:00 11,3 C 9,5 C 89 % 1016,6 hPa 0,0 l/m 0,00 h 0,00 h 0,0 UV-I 0 W/m 0,0 km/h (0 Bft)
03.06.2014 02:00 10,7 C 8,9 C 92 % 1016,3 hPa 0,0 l/m 0,00 h 0,00 h 0,0 UV-I 0 W/m 0,0 km/h (0 Bft)
03.06.2014 03:00 10,2 C 8,4 C 94 % 1016,1 hPa 0,0 l/m 0,00 h 0,00 h 0,0 UV-I 0 W/m 0,0 km/h (0 Bft)
03.06.2014 04:00 9,9 C 8,3 C 96 % 1015,6 hPa 0,0 l/m 0,00 h 0,00 h 0,0 UV-I 0 W/m 0,0 km/h (0 Bft)
03.06.2014 05:00 9,8 C 8,3 C 96 % 1015,4 hPa 0,0 l/m 0,00 h 0,00 h 0,0 UV-I 12 W/m 0,0 km/h (0 Bft)
03.06.2014 06:00 10,1 C 9,0 C 97 % 1015,4 hPa 0,0 l/m 0,00 h 0,00 h 0,0 UV-I 44 W/m 0,0 km/h (0 Bft)
03.06.2014 07:00 11,5 C 10,6 C 97 % 1015,4 hPa 0,0 l/m 0,13 h 0,00 h 0,0 UV-I 102 W/m 0,0 km/h (0 Bft)
03.06.2014 08:00 13,8 C 12,6 C 92 % 1015,2 hPa 0,0 l/m 0,97 h 0,00 h 0,5 UV-I 308 W/m 0,3 km/h (0 Bft)
03.06.2014 09:00 17,2 C 15,9 C 79 % 1015,0 hPa 0,0 l/m 0,97 h 0,00 h 1,0 UV-I 475 W/m 1,0 km/h (0 Bft)
03.06.2014 10:00 19,6 C 22,2 C 70 % 1014,7 hPa 0,0 l/m 0,97 h 0,00 h 2,0 UV-I 608 W/m 2,5 km/h (1 Bft)
03.06.2014 11:00 20,8 C 23,3 C 62 % 1014,5 hPa 0,0 l/m 0,97 h 0,00 h 2,6 UV-I 725 W/m 0,5 km/h (0 Bft)
03.06.2014 12:00 21,7 C 23,6 C 57 % 1014,2 hPa 0,0 l/m 0,70 h 0,00 h 0,0 UV-I 661 W/m 5,0 km/h (1 Bft)
03.06.2014 13:00 23,1 C 25,0 C 49 % 1013,7 hPa 0,0 l/m 0,03 h 0,00 h 2,2 UV-I 223 W/m 12,1 km/h (2 Bft)
03.06.2014 14:00 22,7 C 25,1 C 50 % 1013,1 hPa 0,0 l/m 0,30 h 0,00 h 3,2 UV-I 438 W/m 11,5 km/h (2 Bft)
03.06.2014 15:00 23,4 C 23,8 C 47 % 1012,7 hPa 0,0 l/m 0,73 h 0,00 h 3,0 UV-I 594 W/m 10,1 km/h (2 Bft)
03.06.2014 16:00 21,3 C 18,7 C 58 % 1012,5 hPa 0,0 l/m 0,00 h 0,37 h 0,8 UV-I 68 W/m 11,3 km/h (2 Bft)
03.06.2014 17:00 20,3 C 18,8 C 64 % 1012,4 hPa 0,0 l/m 0,23 h 0,07 h 0,8 UV-I 212 W/m 10,4 km/h (2 Bft)
03.06.2014 18:00 20,9 C 20,3 C 63 % 1011,8 hPa 0,0 l/m 0,77 h 0,00 h 0,0 UV-I 292 W/m 13,0 km/h (3 Bft)
03.06.2014 19:00 20,8 C 19,4 C 63 % 1011,6 hPa 0,0 l/m 0,63 h 0,00 h 0,0 UV-I 170 W/m 2,6 km/h (1 Bft)
03.06.2014 20:00 19,8 C 18,0 C 63 % 1011,8 hPa 0,0 l/m 0,00 h 0,00 h 0,0 UV-I 25 W/m 16,0 km/h (3 Bft)
03.06.2014 21:00 16,1 C 14,9 C 80 % 1012,1 hPa 0,0 l/m 0,00 h 0,00 h 0,0 UV-I 9 W/m 19,3 km/h (3 Bft)
03.06.2014 22:00 15,1 C 14,0 C 85 % 1011,8 hPa 0,0 l/m 0,00 h 0,03 h 0,0 UV-I 0 W/m 2,9 km/h (1 Bft)
03.06.2014 23:00 14,7 C 13,6 C 87 % 1011,5 hPa 0,0 l/m 0,00 h 0,17 h 0,0 UV-I 0 W/m 0,1 km/h (0 Bft)
04.06.2014 00:00 14,4 C 12,8 C 88 % 1011,1 hPa 0,0 l/m 0,00 h 0,07 h 0,0 UV-I 0 W/m 0,2 km/h (0 Bft)
04.06.2014 01:00 13,3 C 11,7 C 91 % 1010,8 hPa 0,0 l/m 0,00 h 0,00 h 0,0 UV-I 0 W/m 0,2 km/h (0 Bft)
04.06.2014 02:00 12,5 C 10,8 C 94 % 1010,2 hPa 0,0 l/m 0,00 h 0,00 h 0,0 UV-I 0 W/m 0,2 km/h (0 Bft)
04.06.2014 03:00 11,9 C 10,4 C 95 % 1009,5 hPa 0,0 l/m 0,00 h 0,00 h 0,0 UV-I 0 W/m 0,1 km/h (0 Bft)
04.06.2014 04:00 11,4 C 9,9 C 96 % 1009,0 hPa 0,0 l/m 0,00 h 0,00 h 0,0 UV-I 0 W/m 0,0 km/h (0 Bft)
04.06.2014 05:00 11,3 C 9,9 C 96 % 1008,4 hPa 0,0 l/m 0,40 h 0,00 h 0,0 UV-I 19 W/m 0,2 km/h (0 Bft)
04.06.2014 06:00 11,8 C 11,0 C 96 % 1008,2 hPa 0,0 l/m 0,33 h 0,00 h 0,0 UV-I 59 W/m 1,5 km/h (1 Bft)
04.06.2014 07:00 13,0 C 12,3 C 94 % 1007,7 hPa 0,0 l/m 0,30 h 0,00 h 0,0 UV-I 132 W/m 6,0 km/h (2 Bft)
04.06.2014 08:00 14,8 C 14,3 C 89 % 1007,5 hPa 0,0 l/m 0,30 h 0,00 h 0,0 UV-I 227 W/m 10,8 km/h (2 Bft)
04.06.2014 09:00 17,3 C 17,0 C 81 % 1007,2 hPa 0,0 l/m 0,73 h 0,00 h 0,7 UV-I 336 W/m 9,0 km/h (2 Bft)
04.06.2014 10:00 18,5 C 18,7 C 77 % 1006,8 hPa 0,0 l/m 0,33 h 0,07 h 1,2 UV-I 349 W/m 11,3 km/h (2 Bft)
04.06.2014 11:00 19,3 C 20,1 C 72 % 1006,5 hPa 0,0 l/m 0,27 h 0,00 h 2,0 UV-I 393 W/m 12,4 km/h (3 Bft)
04.06.2014 12:00 20,0 C 20,2 C 68 % 1005,9 hPa 0,8 l/m 0,37 h 0,30 h 2,5 UV-I 276 W/m 12,2 km/h (2 Bft)
04.06.2014 13:00 16,3 C 14,9 C 90 % 1006,0 hPa 0,8 l/m 0,00 h 0,77 h 1,6 UV-I 216 W/m 11,2 km/h (2 Bft)
04.06.2014 14:00 18,7 C 17,5 C 81 % 1005,4 hPa 0,0 l/m 0,65 h 0,20 h 3,3 UV-I 509 W/m 18,2 km/h (3 Bft)
04.06.2014 15:00 18,3 C 17,0 C 79 % 1004,9 hPa 0,0 l/m 0,00 h 0,63 h 1,1 UV-I 212 W/m 15,3 km/h (3 Bft)
04.06.2014 16:00 18,5 C 18,1 C 79 % 1004,4 hPa 0,0 l/m 0,37 h 0,13 h 1,2 UV-I 314 W/m 20,9 km/h (4 Bft)
04.06.2014 17:00 18,2 C 17,1 C 77 % 1004,1 hPa 0,0 l/m 0,07 h 0,40 h 0,6 UV-I 224 W/m 26,7 km/h (4 Bft)
04.06.2014 18:00 18,4 C 17,6 C 76 % 1003,5 hPa 0,0 l/m 0,07 h 0,00 h 0,5 UV-I 148 W/m 26,4 km/h (4 Bft)
04.06.2014 19:00 17,1 C 15,3 C 85 % 1003,5 hPa 1,2 l/m 0,20 h 0,40 h 0,0 UV-I 106 W/m 16,4 km/h (3 Bft)
04.06.2014 20:00 16,3 C 14,6 C 92 % 1003,7 hPa 0,0 l/m 0,07 h 0,00 h 0,0 UV-I 36 W/m 4,6 km/h (1 Bft)
04.06.2014 21:00 14,5 C 12,9 C 95 % 1004,5 hPa 10,4 l/m 0,00 h 0,87 h 0,0 UV-I 0 W/m 15,9 km/h (3 Bft)
04.06.2014 22:00 13,8 C 12,6 C 97 % 1005,4 hPa 0,4 l/m 0,00 h 0,63 h 0,0 UV-I 0 W/m 15,3 km/h (3 Bft)
04.06.2014 23:00 12,9 C 11,7 C 97 % 1006,3 hPa 1,2 l/m 0,00 h 0,97 h 0,0 UV-I 0 W/m 20,3 km/h (4 Bft)
05.06.2014 00:00 11,9 C 10,9 C 97 % 1007,4 hPa 0,4 l/m 0,00 h 0,77 h 0,0 UV-I 0 W/m 22,9 km/h (4 Bft)
05.06.2014 01:00 11,3 C 10,3 C 97 % 1008,0 hPa 0,0 l/m 0,00 h 0,53 h 0,0 UV-I 0 W/m 25,5 km/h (4 Bft)
05.06.2014 02:00 10,7 C 9,4 C 95 % 1008,7 hPa 0,0 l/m 0,00 h 0,00 h 0,0 UV-I 0 W/m 25,0 km/h (4 Bft)
05.06.2014 03:00 9,5 C 8,4 C 94 % 1009,4 hPa 0,0 l/m 0,00 h 0,00 h 0,0 UV-I 0 W/m 13,8 km/h (3 Bft)
05.06.2014 04:00 8,6 C 7,5 C 95 % 1009,9 hPa 0,0 l/m 0,00 h 0,00 h 0,0 UV-I 0 W/m 13,4 km/h (3 Bft)
05.06.2014 05:00 8,2 C 7,0 C 95 % 1009,8 hPa 0,0 l/m 0,00 h 0,00 h 0,0 UV-I 12 W/m 11,5 km/h (2 Bft)
05.06.2014 06:00 8,3 C 7,3 C 96 % 1009,7 hPa 0,0 l/m 0,27 h 0,00 h 0,0 UV-I 64 W/m 14,4 km/h (3 Bft)
05.06.2014 07:00 9,8 C 8,4 C 91 % 1009,6 hPa 0,0 l/m 0,80 h 0,00 h 0,0 UV-I 188 W/m 19,6 km/h (3 Bft)
05.06.2014 08:00 10,8 C 9,2 C 86 % 1009,9 hPa 0,0 l/m 0,00 h 0,20 h 0,0 UV-I 68 W/m 20,8 km/h (4 Bft)
05.06.2014 09:00 12,0 C 11,1 C 82 % 1010,2 hPa 0,0 l/m 0,20 h 0,00 h 0,5 UV-I 298 W/m 29,9 km/h (5 Bft)
05.06.2014 10:00 12,4 C 11,5 C 81 % 1010,5 hPa 0,0 l/m 0,00 h 0,00 h 0,6 UV-I 148 W/m 28,9 km/h (5 Bft)
05.06.2014 11:00 12,3 C 10,8 C 84 % 1010,9 hPa 0,2 l/m 0,00 h 0,37 h 0,7 UV-I 121 W/m 28,1 km/h (4 Bft)
05.06.2014 12:00 12,5 C 10,7 C 86 % 1011,6 hPa 0,0 l/m 0,00 h 0,50 h 0,0 UV-I 91 W/m 27,5 km/h (4 Bft)
05.06.2014 13:00 13,4 C 13,0 C 85 % 1012,1 hPa 0,0 l/m 0,00 h 0,10 h 1,6 UV-I 288 W/m 27,9 km/h (4 Bft)
05.06.2014 14:00 15,4 C 15,0 C 76 % 1012,4 hPa 0,0 l/m 0,20 h 0,07 h 2,2 UV-I 396 W/m 36,6 km/h (5 Bft)
05.06.2014 15:00 16,4 C 16,2 C 71 % 1012,6 hPa 0,0 l/m 0,53 h 0,00 h 2,4 UV-I 506 W/m 34,6 km/h (5 Bft)
05.06.2014 16:00 15,1 C 13,7 C 84 % 1012,9 hPa 1,8 l/m 0,30 h 0,20 h 1,3 UV-I 308 W/m 20,0 km/h (4 Bft)
05.06.2014 17:00 16,3 C 14,1 C 73 % 1013,0 hPa 0,0 l/m 0,20 h 0,00 h 1,0 UV-I 280 W/m 25,9 km/h (4 Bft)
05.06.2014 18:00 16,9 C 14,7 C 67 % 1013,1 hPa 0,0 l/m 0,63 h 0,00 h 0,7 UV-I 325 W/m 29,2 km/h (5 Bft)
05.06.2014 19:00 16,3 C 14,2 C 68 % 1013,6 hPa 0,0 l/m 0,77 h 0,10 h 0,0 UV-I 241 W/m 23,2 km/h (4 Bft)
05.06.2014 20:00 15,6 C 13,4 C 67 % 1014,0 hPa 0,0 l/m 0,53 h 0,00 h 0,0 UV-I 89 W/m 11,8 km/h (2 Bft)
05.06.2014 21:00 14,6 C 12,1 C 72 % 1014,4 hPa 0,0 l/m 0,20 h 0,00 h 0,0 UV-I 16 W/m 8,0 km/h (2 Bft)
05.06.2014 22:00 13,8 C 11,0 C 76 % 1014,9 hPa 0,0 l/m 0,00 h 0,00 h 0,0 UV-I 0 W/m 5,5 km/h (1 Bft)
05.06.2014 23:00 12,5 C 10,0 C 82 % 1015,4 hPa 0,0 l/m 0,00 h 0,00 h 0,0 UV-I 0 W/m 3,8 km/h (1 Bft)
06.06.2014 00:00 11,3 C 9,0 C 88 % 1015,7 hPa 0,0 l/m 0,00 h 0,00 h 0,0 UV-I 0 W/m 3,2 km/h (1 Bft)
06.06.2014 01:00 10,7 C 8,5 C 90 % 1016,0 hPa 0,0 l/m 0,00 h 0,00 h 0,0 UV-I 0 W/m 4,2 km/h (1 Bft)
06.06.2014 02:00 10,1 C 8,1 C 92 % 1016,1 hPa 0,0 l/m 0,00 h 0,00 h 0,0 UV-I 0 W/m 1,7 km/h (1 Bft)
06.06.2014 03:00 9,0 C 7,5 C 94 % 1016,3 hPa 0,0 l/m 0,00 h 0,00 h 0,0 UV-I 0 W/m 0,9 km/h (0 Bft)
06.06.2014 04:00 8,4 C 6,7 C 95 % 1016,5 hPa 0,0 l/m 0,00 h 0,00 h 0,0 UV-I 0 W/m 0,0 km/h (0 Bft)
06.06.2014 05:00 7,9 C 6,7 C 96 % 1016,7 hPa 0,0 l/m 0,00 h 0,00 h 0,0 UV-I 12 W/m 1,2 km/h (1 Bft)
06.06.2014 06:00 8,2 C 7,3 C 96 % 1016,9 hPa 0,0 l/m 0,20 h 0,00 h 0,0 UV-I 64 W/m 4,8 km/h (1 Bft)
06.06.2014 07:00 9,8 C 8,6 C 93 % 1017,0 hPa 0,0 l/m 0,97 h 0,00 h 0,0 UV-I 206 W/m 8,3 km/h (2 Bft)
06.06.2014 08:00 12,7 C 10,8 C 85 % 1017,1 hPa 0,0 l/m 0,97 h 0,00 h 0,0 UV-I 363 W/m 12,1 km/h (2 Bft)
06.06.2014 09:00 16,6 C 14,1 C 76 % 1017,2 hPa 0,0 l/m 0,97 h 0,00 h 1,1 UV-I 513 W/m 9,4 km/h (2 Bft)
06.06.2014 10:00 19,2 C 21,0 C 64 % 1016,9 hPa 0,0 l/m 0,97 h 0,00 h 2,7 UV-I 644 W/m 12,3 km/h (3 Bft)
06.06.2014 11:00 20,8 C 24,4 C 57 % 1016,6 hPa 0,0 l/m 0,97 h 0,00 h 4,1 UV-I 746 W/m 12,9 km/h (3 Bft)
06.06.2014 12:00 22,2 C 25,4 C 53 % 1016,2 hPa 0,0 l/m 0,97 h 0,00 h 5,0 UV-I 775 W/m 13,4 km/h (3 Bft)
06.06.2014 13:00 23,4 C 23,3 C 50 % 1015,8 hPa 0,0 l/m 0,97 h 0,00 h 5,5 UV-I 777 W/m 13,6 km/h (3 Bft)
06.06.2014 14:00 24,4 C 23,3 C 48 % 1015,3 hPa 0,0 l/m 0,97 h 0,00 h 5,4 UV-I 793 W/m 13,4 km/h (3 Bft)
06.06.2014 15:00 25,0 C 23,6 C 47 % 1014,8 hPa 0,0 l/m 0,97 h 0,00 h 4,6 UV-I 777 W/m 13,5 km/h (3 Bft)
06.06.2014 16:00 25,6 C 24,4 C 44 % 1014,5 hPa 0,0 l/m 1,00 h 0,00 h 3,3 UV-I 683 W/m 11,4 km/h (2 Bft)
06.06.2014 17:00 25,5 C 23,1 C 44 % 1014,2 hPa 0,0 l/m 1,00 h 0,00 h 2,0 UV-I 527 W/m 8,8 km/h (2 Bft)
06.06.2014 18:00 25,1 C 21,9 C 44 % 1013,8 hPa 0,0 l/m 0,97 h 0,00 h 1,0 UV-I 422 W/m 7,7 km/h (2 Bft)
06.06.2014 19:00 24,7 C 22,4 C 45 % 1013,7 hPa 0,0 l/m 1,00 h 0,00 h 0,5 UV-I 266 W/m 10,3 km/h (2 Bft)
06.06.2014 20:00 23,8 C 21,4 C 52 % 1013,7 hPa 0,0 l/m 1,00 h 0,00 h 0,0 UV-I 120 W/m 7,6 km/h (2 Bft)
06.06.2014 21:00 21,7 C 19,2 C 59 % 1013,8 hPa 0,0 l/m 0,50 h 0,00 h 0,0 UV-I 20 W/m 5,5 km/h (1 Bft)
06.06.2014 22:00 18,6 C 15,4 C 70 % 1014,2 hPa 0,0 l/m 0,00 h 0,00 h 0,0 UV-I 0 W/m 0,8 km/h (0 Bft)
06.06.2014 23:00 17,6 C 14,0 C 72 % 1014,1 hPa 0,0 l/m 0,00 h 0,00 h 0,0 UV-I 0 W/m 1,9 km/h (1 Bft)
07.06.2014 00:00 16,3 C 13,3 C 78 % 1014,1 hPa 0,0 l/m 0,00 h 0,00 h 0,0 UV-I 0 W/m 0,0 km/h (0 Bft)
07.06.2014 01:00 15,4 C 12,7 C 82 % 1013,9 hPa 0,0 l/m 0,00 h 0,00 h 0,0 UV-I 0 W/m 0,2 km/h (0 Bft)
07.06.2014 02:00 14,8 C 12,2 C 84 % 1013,8 hPa 0,0 l/m 0,00 h 0,00 h 0,0 UV-I 0 W/m 0,1 km/h (0 Bft)
07.06.2014 03:00 14,0 C 11,7 C 88 % 1013,7 hPa 0,0 l/m 0,00 h 0,00 h 0,0 UV-I 0 W/m 0,0 km/h (0 Bft)
07.06.2014 04:00 13,6 C 11,3 C 90 % 1013,7 hPa 0,0 l/m 0,00 h 0,00 h 0,0 UV-I 0 W/m 0,0 km/h (0 Bft)
07.06.2014 05:00 13,9 C 11,6 C 88 % 1013,6 hPa 0,0 l/m 0,00 h 0,00 h 0,0 UV-I 11 W/m 3,9 km/h (1 Bft)
07.06.2014 06:00 14,7 C 12,5 C 85 % 1013,7 hPa 0,0 l/m 0,20 h 0,00 h 0,0 UV-I 60 W/m 6,3 km/h (2 Bft)
07.06.2014 07:00 16,7 C 14,4 C 81 % 1013,6 hPa 0,0 l/m 0,97 h 0,00 h 0,0 UV-I 195 W/m 9,6 km/h (2 Bft)
07.06.2014 08:00 19,2 C 16,7 C 74 % 1013,5 hPa 0,0 l/m 1,00 h 0,00 h 0,0 UV-I 350 W/m 16,0 km/h (3 Bft)
07.06.2014 09:00 22,6 C 20,1 C 66 % 1013,5 hPa 0,0 l/m 1,00 h 0,00 h 1,0 UV-I 501 W/m 15,0 km/h (3 Bft)
07.06.2014 10:00 24,3 C 24,1 C 64 % 1013,3 hPa 0,0 l/m 0,70 h 0,00 h 1,9 UV-I 417 W/m 15,3 km/h (3 Bft)
07.06.2014 11:00 26,1 C 27,3 C 62 % 1013,2 hPa 0,0 l/m 0,97 h 0,00 h 3,3 UV-I 599 W/m 14,8 km/h (3 Bft)
07.06.2014 12:00 28,7 C 31,2 C 57 % 1013,0 hPa 0,0 l/m 0,97 h 0,00 h 4,8 UV-I 778 W/m 18,4 km/h (3 Bft)
07.06.2014 13:00 30,1 C 29,6 C 52 % 1013,0 hPa 0,0 l/m 1,00 h 0,00 h 5,1 UV-I 777 W/m 18,5 km/h (3 Bft)
07.06.2014 14:00 30,7 C 29,8 C 50 % 1012,9 hPa 0,0 l/m 1,00 h 0,00 h 3,9 UV-I 584 W/m 16,9 km/h (3 Bft)
07.06.2014 15:00 30,8 C 29,5 C 50 % 1012,9 hPa 0,0 l/m 0,50 h 0,00 h 2,9 UV-I 453 W/m 15,4 km/h (3 Bft)
07.06.2014 16:00 29,7 C 28,0 C 53 % 1012,8 hPa 0,0 l/m 0,00 h 0,00 h 1,3 UV-I 248 W/m 12,8 km/h (3 Bft)
07.06.2014 17:00 29,8 C 27,6 C 55 % 1012,6 hPa 0,0 l/m 0,47 h 0,00 h 1,3 UV-I 349 W/m 11,2 km/h (2 Bft)
07.06.2014 18:00 30,1 C 27,2 C 56 % 1012,6 hPa 0,0 l/m 0,77 h 0,00 h 1,1 UV-I 373 W/m 12,5 km/h (3 Bft)
07.06.2014 19:00 28,5 C 25,8 C 65 % 1012,8 hPa 0,0 l/m 0,33 h 0,00 h 0,6 UV-I 164 W/m 5,8 km/h (2 Bft)
07.06.2014 20:00 27,8 C 24,2 C 68 % 1012,8 hPa 0,0 l/m 0,77 h 0,00 h 0,7 UV-I 115 W/m 0,2 km/h (0 Bft)
07.06.2014 21:00 25,1 C 21,5 C 79 % 1013,4 hPa 0,0 l/m 0,00 h 0,00 h 0,0 UV-I 8 W/m 0,0 km/h (0 Bft)
07.06.2014 22:00 22,9 C 19,9 C 87 % 1014,3 hPa 0,0 l/m 0,00 h 0,00 h 0,0 UV-I 0 W/m 0,0 km/h (0 Bft)
07.06.2014 23:00 21,8 C 19,1 C 91 % 1014,5 hPa 0,0 l/m 0,00 h 0,00 h 0,0 UV-I 0 W/m 0,0 km/h (0 Bft)
08.06.2014 00:00 20,8 C 18,3 C 94 % 1014,6 hPa 0,0 l/m 0,00 h 0,00 h 0,0 UV-I 0 W/m 0,4 km/h (0 Bft)
08.06.2014 01:00 20,2 C 17,9 C 96 % 1014,7 hPa 0,0 l/m 0,00 h 0,00 h 0,0 UV-I 0 W/m 0,0 km/h (0 Bft)
08.06.2014 02:00 19,6 C 17,6 C 97 % 1014,7 hPa 0,0 l/m 0,00 h 0,00 h 0,0 UV-I 0 W/m 0,5 km/h (0 Bft)
08.06.2014 03:00 19,4 C 17,4 C 96 % 1014,9 hPa 0,0 l/m 0,00 h 0,00 h 0,0 UV-I 0 W/m 2,9 km/h (1 Bft)
08.06.2014 04:00 19,0 C 16,9 C 93 % 1015,3 hPa 0,0 l/m 0,00 h 0,00 h 0,0 UV-I 0 W/m 0,4 km/h (0 Bft)
08.06.2014 05:00 18,5 C 16,6 C 93 % 1015,6 hPa 0,0 l/m 0,00 h 0,00 h 0,0 UV-I 10 W/m 0,8 km/h (0 Bft)
08.06.2014 06:00 18,3 C 16,7 C 94 % 1015,9 hPa 0,0 l/m 0,03 h 0,00 h 0,0 UV-I 62 W/m 0,0 km/h (0 Bft)
08.06.2014 07:00 19,3 C 17,8 C 91 % 1016,4 hPa 0,0 l/m 0,90 h 0,00 h 0,0 UV-I 179 W/m 7,9 km/h (2 Bft)
08.06.2014 08:00 20,4 C 19,0 C 86 % 1017,0 hPa 0,0 l/m 0,80 h 0,00 h 0,0 UV-I 288 W/m 15,0 km/h (3 Bft)
08.06.2014 09:00 21,7 C 20,7 C 80 % 1017,3 hPa 0,0 l/m 0,97 h 0,00 h 0,8 UV-I 412 W/m 16,4 km/h (3 Bft)
08.06.2014 10:00 22,1 C 21,6 C 79 % 1017,7 hPa 0,0 l/m 0,03 h 0,00 h 0,9 UV-I 216 W/m 12,2 km/h (2 Bft)
08.06.2014 11:00 19,1 C 16,7 C 89 % 1018,1 hPa 10,2 l/m 0,00 h 0,53 h 1,0 UV-I 32 W/m 20,9 km/h (4 Bft)
08.06.2014 12:00 20,4 C 22,0 C 91 % 1018,1 hPa 0,0 l/m 0,87 h 0,00 h 4,7 UV-I 650 W/m 7,5 km/h (2 Bft)
08.06.2014 13:00 23,8 C 24,0 C 83 % 1018,2 hPa 0,0 l/m 1,00 h 0,00 h 5,5 UV-I 666 W/m 8,9 km/h (2 Bft)
08.06.2014 14:00 24,9 C 24,4 C 77 % 1018,0 hPa 0,0 l/m 1,00 h 0,00 h 5,3 UV-I 743 W/m 12,8 km/h (3 Bft)
08.06.2014 15:00 25,8 C 25,0 C 72 % 1018,0 hPa 0,0 l/m 1,00 h 0,00 h 4,5 UV-I 741 W/m 13,6 km/h (3 Bft)
08.06.2014 16:00 26,2 C 25,4 C 70 % 1017,8 hPa 0,0 l/m 1,00 h 0,00 h 3,2 UV-I 632 W/m 15,6 km/h (3 Bft)
08.06.2014 17:00 26,3 C 25,2 C 69 % 1017,8 hPa 0,0 l/m 0,70 h 0,00 h 1,8 UV-I 465 W/m 15,6 km/h (3 Bft)
08.06.2014 18:00 26,1 C 24,4 C 68 % 1017,5 hPa 0,0 l/m 0,97 h 0,00 h 1,0 UV-I 398 W/m 16,5 km/h (3 Bft)
08.06.2014 19:00 25,6 C 23,8 C 70 % 1017,4 hPa 0,0 l/m 1,00 h 0,00 h 0,5 UV-I 247 W/m 15,7 km/h (3 Bft)
08.06.2014 20:00 24,9 C 23,1 C 74 % 1017,5 hPa 0,0 l/m 1,00 h 0,00 h 0,0 UV-I 107 W/m 14,4 km/h (3 Bft)
08.06.2014 21:00 23,7 C 21,8 C 78 % 1017,6 hPa 0,0 l/m 0,17 h 0,00 h 0,0 UV-I 18 W/m 11,2 km/h (2 Bft)
08.06.2014 22:00 22,5 C 20,8 C 83 % 1017,9 hPa 0,0 l/m 0,00 h 0,00 h 0,0 UV-I 0 W/m 8,4 km/h (2 Bft)
08.06.2014 23:00 21,4 C 19,5 C 87 % 1018,0 hPa 0,0 l/m 0,00 h 0,00 h 0,0 UV-I 0 W/m 2,6 km/h (1 Bft)
Min-Datum _ 02.06.14 02.06.14 06.06.14 04.06.14 - - - - - 02.06.14
_ Min-Zeit 05:44 05:00 17:12 18:48 - - - - - 00:00
Minimum _ 7,7 C 6,1 C 41 % 1003,3 hPa - - - - - 0,0 km/h (0 Bft)
Max-Datum _ 07.06.14 07.06.14 06.06.14 08.06.14 04.06.14 02.06.14 03.06.14 06.06.14 05.06.14 05.06.14
_ Max-Zeit 15:12 12:24 06:28 11:08 21:06 07:52 16:14 13:20 15:12 14:14
Maximum _ 31,5 C 32,2 C 100 % 1020,1 hPa 10,4 l/m 0,03 h 0,03 h 5,8 UV-I 1085 W/m 54,4 km/h
W (7 Bft)
Durchschnitt _ 17,5 C 16,3 C 78 % 1013,8 hPa #27,4 l/m #60:13 h #9:30 h 2,1 UV-I 314 W/m 9,0 km/h (2 Bft)
© 2014 W. Hausmann